Time;durP1;ratioP1;P1;durP2;ratioP2;P2;SDS_P1;SDS_P2;PMS_P1;PMS_P2;Temp;Humidity;BMP_temperature;BMP_pressure;BME280_temperature;BME280_humidity;BME280_pressure;Samples;Min_cycle;Max_cycle;Signal;HPM_P1;HPM_P2
2022/02/11 00:07:27;;;;;;;;;;;;;;;17.21;49.79;102176.31;5016953;28;19968;-77
2022/02/11 00:09:53;;;;;;;;;;;;;;;17.21;49.74;102181.50;4998870;28;20463;-78
2022/02/11 00:12:18;;;;;;;;;;;;;;;17.21;49.74;102168.50;5000041;28;19965;-78
2022/02/11 00:14:57;;;;;;;;;;;;;;;17.21;49.57;102173.72;5025191;28;20008;-78
2022/02/11 00:17:22;;;;;;;;;;;;;;;17.21;49.49;102176.31;5008104;28;19949;-78
2022/02/11 00:19:48;;;;;;;;;;;;;;;17.20;49.68;102169.34;4987687;28;19914;-77
2022/02/11 00:22:13;;;;;;;;;;;;;;;17.20;49.74;102165.03;4988447;28;19913;-78
2022/02/11 00:24:38;;;;;;;;;;;;;;;17.19;49.72;102159.81;4993608;28;20323;-77
2022/02/11 00:32:49;;;;;;;;;;;;;;;17.19;49.55;102150.25;4990125;28;19913;-77
2022/02/11 00:35:42;;;;;;;;;;;;;;;17.19;49.69;102139.00;5008879;28;19918;-77
2022/02/11 00:38:05;;;;;;;;;;;;;;;17.17;49.67;102136.38;5025659;28;19913;-78
2022/02/11 01:02:09;;;;;;;;;;;;;;;17.16;49.44;102134.63;5009752;28;20001;-77
2022/02/11 01:04:12;;;;;;;;;;;;;;;17.17;49.42;102135.50;5024409;28;19976;-77
2022/02/11 01:06:37;;;;;;;;;;;;;;;17.16;49.62;102132.03;5023172;28;20442;-77
2022/02/11 01:09:03;;;;;;;;;;;;;;;17.16;49.58;102132.03;5005611;28;19910;-77
2022/02/11 01:13:54;;;;;;;;;;;;;;;17.15;49.50;102135.47;5005411;28;19964;-77
2022/02/11 01:16:25;;;;;;;;;;;;;;;17.15;49.47;102129.41;4989656;28;19913;-77
2022/02/11 01:19:01;;;;;;;;;;;;;;;17.14;49.50;102131.13;4989801;28;19913;-77
2022/02/11 01:21:37;;;;;;;;;;;;;;;17.15;49.29;102139.81;5004063;28;19909;-78
2022/02/11 01:35:16;;;;;;;;;;;;;;;17.13;49.52;102157.97;5021881;28;20485;-78
2022/02/11 01:51:40;;;;;;;;;;;;;;;17.11;49.36;102157.09;5008306;28;19920;-78
2022/02/11 01:54:03;;;;;;;;;;;;;;;17.11;49.31;102151.88;4995841;28;20336;-78
2022/02/11 02:25:41;;;;;;;;;;;;;;;17.09;49.20;102182.19;5022904;28;19913;-78
2022/02/11 02:32:00;;;;;;;;;;;;;;;17.07;49.04;102176.09;5007700;28;19925;-78
2022/02/11 02:56:39;;;;;;;;;;;;;;;17.06;49.20;102200.38;5021046;28;19968;-78
2022/02/11 02:57:51;;;;;;;;;;;;;;;17.05;49.24;102219.44;5020782;28;19909;-78
2022/02/11 03:51:56;;;;;;;;;;;;;;;16.99;48.85;102285.22;5001904;28;19924;-78
2022/02/11 03:55:12;;;;;;;;;;;;;;;16.99;48.83;102293.03;4987202;28;19917;-78
2022/02/11 04:55:02;;;;;;;;;;;;;;;16.90;48.94;102407.31;5016241;28;19924;-83
2022/02/11 05:00:14;;;;;;;;;;;;;;;16.89;48.89;102431.53;5030971;28;19924;-83
2022/02/11 05:02:40;;;;;;;;;;;;;;;16.90;48.62;102451.50;5012366;28;19932;-83
2022/02/11 05:05:08;;;;;;;;;;;;;;;16.91;48.81;102486.19;5010889;28;19941;-83
2022/02/11 05:07:33;;;;;;;;;;;;;;;16.90;48.76;102466.22;5010942;28;19916;-82
2022/02/11 05:09:59;;;;;;;;;;;;;;;16.89;48.48;102480.06;5027590;28;19937;-82
2022/02/11 05:12:24;;;;;;;;;;;;;;;16.90;48.81;102485.31;4991799;28;20344;-82
2022/02/11 05:14:49;;;;;;;;;;;;;;;16.89;48.66;102486.13;4992196;28;19928;-82
2022/02/11 05:17:15;;;;;;;;;;;;;;;16.88;48.81;102512.13;4992398;28;19921;-83
2022/02/11 05:19:40;;;;;;;;;;;;;;;16.88;48.79;102489.59;5005625;28;19913;-83
2022/02/11 05:22:05;;;;;;;;;;;;;;;16.86;48.83;102506.91;4989799;28;20279;-83
2022/02/11 05:24:30;;;;;;;;;;;;;;;16.87;48.76;102506.03;5009120;28;19914;-82
2022/02/11 05:26:55;;;;;;;;;;;;;;;16.86;48.66;102509.50;4994434;28;19953;-83
2022/02/11 05:29:21;;;;;;;;;;;;;;;16.86;48.63;102509.50;4998203;28;19913;-82
2022/02/11 05:31:47;;;;;;;;;;;;;;;16.85;48.58;102508.63;5014526;28;19920;-83
2022/02/11 05:34:12;;;;;;;;;;;;;;;16.85;48.52;102528.53;5003302;28;19921;-83
2022/02/11 05:36:37;;;;;;;;;;;;;;;16.85;48.72;102525.91;5027284;28;19913;-82
2022/02/11 05:39:03;;;;;;;;;;;;;;;16.83;48.74;102532.81;5010016;28;19914;-82
2022/02/11 05:41:28;;;;;;;;;;;;;;;16.84;48.44;102526.78;5010099;28;19914;-83
2022/02/11 05:43:53;;;;;;;;;;;;;;;16.84;48.50;102545.00;5027212;28;19915;-83
2022/02/11 05:46:20;;;;;;;;;;;;;;;16.82;48.78;102544.94;5027460;28;19909;-83
2022/02/11 05:48:45;;;;;;;;;;;;;;;16.83;48.70;102558.81;5029683;28;19917;-83
2022/02/11 05:51:11;;;;;;;;;;;;;;;16.83;48.57;102558.81;5029164;28;19909;-83
2022/02/11 05:53:36;;;;;;;;;;;;;;;16.82;48.46;102557.06;5025465;28;19910;-82
2022/02/11 05:56:02;;;;;;;;;;;;;;;16.82;48.49;102573.53;5026647;28;19909;-82
2022/02/11 05:58:27;;;;;;;;;;;;;;;16.83;48.66;102584.81;5028363;28;19913;-83
2022/02/11 06:00:53;;;;;;;;;;;;;;;16.82;48.51;102575.28;5025396;28;19919;-82
2022/02/11 06:03:18;;;;;;;;;;;;;;;16.82;48.70;102583.06;5024262;28;19999;-82
2022/02/11 06:05:43;;;;;;;;;;;;;;;16.81;48.85;102582.22;5006064;28;19913;-82
2022/02/11 06:08:08;;;;;;;;;;;;;;;16.81;49.18;102590.00;5025148;28;19985;-83
2022/02/11 06:10:34;;;;;;;;;;;;;;;16.81;49.14;102591.72;5009375;28;20324;-82
2022/02/11 06:12:59;;;;;;;;;;;;;;;16.80;49.25;102583.03;5008810;28;20339;-82
2022/02/11 06:15:24;;;;;;;;;;;;;;;16.81;49.24;102597.81;5011417;28;19920;-82
2022/02/11 06:17:50;;;;;;;;;;;;;;;16.82;49.32;102633.34;5011358;28;19921;-82
2022/02/11 06:20:15;;;;;;;;;;;;;;;16.82;49.31;102637.69;5011412;28;19913;-84
2022/02/11 06:22:44;;;;;;;;;;;;;;;16.82;49.39;102635.06;5027771;28;19983;-82
2022/02/11 06:25:12;;;;;;;;;;;;;;;16.82;49.24;102635.94;5025089;28;19967;-83
2022/02/11 06:27:37;;;;;;;;;;;;;;;16.82;49.27;102640.28;5026133;28;19910;-83
2022/02/11 06:30:03;;;;;;;;;;;;;;;16.83;49.33;102648.13;5027466;28;19916;-82
2022/02/11 06:32:28;;;;;;;;;;;;;;;16.83;49.32;102666.31;5011713;28;19917;-82
2022/02/11 06:34:56;;;;;;;;;;;;;;;16.83;49.28;102671.53;5026452;28;19922;-83
2022/02/11 06:37:21;;;;;;;;;;;;;;;16.83;49.50;102686.22;5009198;28;19914;-81
2022/02/11 06:39:46;;;;;;;;;;;;;;;16.83;49.49;102722.63;5024779;28;19920;-82
2022/02/11 06:42:11;;;;;;;;;;;;;;;16.83;49.67;102697.53;5026856;28;19906;-82
2022/02/11 06:44:37;;;;;;;;;;;;;;;16.82;49.54;102681.88;5025889;28;19914;-83
2022/02/11 06:47:02;;;;;;;;;;;;;;;16.82;49.62;102680.16;5021589;28;20004;-81
2022/02/11 06:49:28;;;;;;;;;;;;;;;16.83;49.61;102678.41;5008087;28;19917;-82
2022/02/11 06:51:54;;;;;;;;;;;;;;;16.82;49.74;102684.47;5008819;28;19913;-82
2022/02/11 06:57:22;;;;;;;;;;;;;;;16.83;49.79;102714.81;5025669;28;19925;-81
2022/02/11 06:59:47;;;;;;;;;;;;;;;16.92;50.25;102721.97;5005052;28;19917;-81
2022/02/11 07:02:17;;;;;;;;;;;;;;;17.00;50.13;102729.09;5005209;28;20426;-81
2022/02/11 07:04:43;;;;;;;;;;;;;;;17.08;50.21;102744.03;5025351;28;19920;-81
2022/02/11 07:07:36;;;;;;;;;;;;;;;17.12;50.01;102740.66;5024184;28;19909;-82
2022/02/11 07:10:03;;;;;;;;;;;;;;;17.15;50.35;102753.72;5024610;28;19971;-82
2022/02/11 07:12:28;;;;;;;;;;;;;;;17.17;50.05;102752.03;5002801;28;19924;-81
2022/02/11 07:17:57;;;;;;;;;;;;;;;17.19;50.27;102752.94;5031998;28;19923;-80
2022/02/11 07:23:28;;;;;;;;;;;;;;;17.20;50.22;102755.59;5124479;23;19912;-82
2022/02/11 07:25:53;;;;;;;;;;;;;;;17.22;50.34;102764.31;5006883;28;19944;-82
2022/02/11 07:28:20;;;;;;;;;;;;;;;17.22;50.41;102776.41;5005345;28;19913;-82
2022/02/11 07:30:48;;;;;;;;;;;;;;;17.24;50.43;102778.19;4989100;28;19913;-81
2022/02/11 07:33:13;;;;;;;;;;;;;;;17.26;50.37;102773.03;5005189;28;19909;-81
2022/02/11 07:35:38;;;;;;;;;;;;;;;17.25;50.54;102784.31;4988394;28;19924;-81
2022/02/11 07:38:04;;;;;;;;;;;;;;;17.26;50.53;102786.94;4994248;28;19923;-82
2022/02/11 07:40:29;;;;;;;;;;;;;;;17.28;50.39;102795.66;4995293;28;19936;-81
2022/02/11 07:42:54;;;;;;;;;;;;;;;17.29;50.22;102801.75;5008086;28;19920;-81
2022/02/11 07:45:22;;;;;;;;;;;;;;;17.30;50.37;102811.31;4996302;28;19928;-84
2022/02/11 07:47:47;;;;;;;;;;;;;;;17.30;50.30;102813.03;5016652;28;19923;-82
2022/02/11 07:50:13;;;;;;;;;;;;;;;17.30;50.45;102826.03;4988593;28;19980;-81
2022/02/11 07:52:40;;;;;;;;;;;;;;;17.31;50.25;102827.78;5023657;28;19917;-82
2022/02/11 07:55:06;;;;;;;;;;;;;;;17.30;50.25;102832.13;5005801;28;19980;-82
2022/02/11 07:57:31;;;;;;;;;;;;;;;17.30;50.35;102846.88;5011465;28;19910;-82
2022/02/11 07:59:56;;;;;;;;;;;;;;;17.33;50.35;102850.41;5012013;28;19914;-81
2022/02/11 08:02:22;;;;;;;;;;;;;;;17.36;50.15;102860.91;5003572;28;19925;-82
2022/02/11 08:04:47;;;;;;;;;;;;;;;17.35;50.17;102860.84;5001949;28;19981;-81
2022/02/11 08:07:12;;;;;;;;;;;;;;;17.36;50.29;102867.84;5002886;28;19972;-81
2022/02/11 08:09:37;;;;;;;;;;;;;;;17.40;50.18;102874.88;5016712;28;19909;-80
2022/02/11 08:12:03;;;;;;;;;;;;;;;17.40;50.19;102885.28;5000886;28;20414;-82
2022/02/11 08:14:30;;;;;;;;;;;;;;;17.42;49.92;102897.50;5001496;28;20368;-82
2022/02/11 08:16:55;;;;;;;;;;;;;;;17.44;50.08;102903.63;5019091;28;19920;-81
2022/02/11 08:19:22;;;;;;;;;;;;;;;17.47;49.80;102903.66;5019167;28;19913;-82
2022/02/11 08:21:51;;;;;;;;;;;;;;;17.47;49.94;102914.09;5003457;28;19913;-81
2022/02/11 08:24:16;;;;;;;;;;;;;;;17.52;49.77;102919.41;5015998;28;19928;-81
2022/02/11 08:26:42;;;;;;;;;;;;;;;17.53;49.87;102915.06;4992539;28;19918;-81
2022/02/11 08:29:08;;;;;;;;;;;;;;;17.52;49.57;102916.78;4991601;28;19948;-82
2022/02/11 08:31:37;;;;;;;;;;;;;;;17.56;49.60;102925.56;4994336;28;19916;-81
2022/02/11 08:34:02;;;;;;;;;;;;;;;17.55;49.62;102939.41;4994250;28;19910;-81
2022/02/11 08:36:28;;;;;;;;;;;;;;;17.61;49.60;102939.56;4990905;28;19964;-82
2022/02/11 08:38:55;;;;;;;;;;;;;;;17.57;49.39;102946.44;4996285;28;19913;-82
2022/02/11 08:41:21;;;;;;;;;;;;;;;17.57;49.76;102953.34;4982186;28;19977;-83
2022/02/11 08:43:46;;;;;;;;;;;;;;;17.57;49.74;102969.88;5015423;28;19917;-82
2022/02/11 08:46:13;;;;;;;;;;;;;;;17.57;49.62;102975.06;4980391;28;19920;-82
2022/02/11 08:48:39;;;;;;;;;;;;;;;17.59;49.57;102982.91;4998587;28;19914;-82
2022/02/11 08:51:04;;;;;;;;;;;;;;;17.61;49.43;102996.84;4997956;28;19968;-82
2022/02/11 08:53:31;;;;;;;;;;;;;;;17.61;49.49;103002.91;4992534;28;19893;-82
2022/02/11 08:55:56;;;;;;;;;;;;;;;17.63;49.45;103002.97;4986848;28;19953;-82
2022/02/11 08:58:22;;;;;;;;;;;;;;;17.64;49.36;103013.44;5002253;28;19932;-82
2022/02/11 09:00:50;;;;;;;;;;;;;;;17.65;49.16;103015.19;4987113;28;19916;-82
2022/02/11 09:03:16;;;;;;;;;;;;;;;17.74;49.24;103021.47;5002277;28;19921;-82
2022/02/11 09:05:42;;;;;;;;;;;;;;;17.80;48.71;103014.69;5000568;28;19965;-82
2022/02/11 09:08:07;;;;;;;;;;;;;;;17.81;48.71;103023.34;5002627;28;19913;-82
2022/02/11 09:10:32;;;;;;;;;;;;;;;17.81;48.79;103024.25;5000774;28;19917;-82
2022/02/11 09:12:59;;;;;;;;;;;;;;;17.79;48.98;103036.38;5000723;28;19917;-82
2022/02/11 09:15:26;;;;;;;;;;;;;;;17.82;48.82;103038.19;5000595;28;19977;-81
2022/02/11 09:17:52;;;;;;;;;;;;;;;17.82;48.72;103035.59;4986690;28;19933;-82
2022/02/11 09:20:18;;;;;;;;;;;;;;;17.81;48.71;103047.69;4987422;28;19910;-82
2022/02/11 09:22:46;;;;;;;;;;;;;;;17.85;48.63;103046.94;5002604;28;19925;-81
2022/02/11 09:25:12;;;;;;;;;;;;;;;17.87;48.28;103055.69;4986752;28;19953;-82
2022/02/11 09:27:43;;;;;;;;;;;;;;;17.80;48.66;103056.34;4988853;28;19909;-82
2022/02/11 09:30:18;;;;;;;;;;;;;;;17.71;48.80;103066.53;4999431;28;19916;-82
2022/02/11 09:32:44;;;;;;;;;;;;;;;17.69;48.71;103076.03;4983520;28;19910;-80
2022/02/11 09:35:10;;;;;;;;;;;;;;;17.68;48.65;103082.97;4981572;28;20375;-81
2022/02/11 09:37:37;;;;;;;;;;;;;;;17.66;48.74;103094.19;5002326;28;19917;-82
2022/02/11 09:40:03;;;;;;;;;;;;;;;17.65;48.92;103088.06;4987143;28;19910;-84
2022/02/11 09:42:30;;;;;;;;;;;;;;;17.72;48.76;103089.13;4998919;28;19941;-83
2022/02/11 09:44:56;;;;;;;;;;;;;;;17.73;48.78;103093.50;5001957;28;19910;-83
2022/02/11 09:47:21;;;;;;;;;;;;;;;17.71;48.81;103099.50;4994331;28;19916;-82
2022/02/11 09:49:47;;;;;;;;;;;;;;;17.69;48.68;103100.34;4989164;28;19910;-81
2022/02/11 09:52:14;;;;;;;;;;;;;;;17.70;48.78;103106.41;4984738;28;19996;-82
2022/02/11 09:54:40;;;;;;;;;;;;;;;17.71;48.71;103116.00;5002851;28;19936;-82
2022/02/11 09:57:05;;;;;;;;;;;;;;;17.73;48.64;103121.28;5001296;28;19976;-82
2022/02/11 09:59:31;;;;;;;;;;;;;;;17.74;48.64;103130.84;5019338;28;19913;-82
2022/02/11 10:01:56;;;;;;;;;;;;;;;17.73;48.76;103129.09;4989344;28;20006;-82
2022/02/11 10:04:22;;;;;;;;;;;;;;;17.71;48.71;103129.03;4986624;28;19932;-82
2022/02/11 10:06:54;;;;;;;;;;;;;;;17.72;48.57;103137.72;4985305;28;19932;-83
2022/02/11 10:09:23;;;;;;;;;;;;;;;17.72;48.70;103148.13;4986697;28;19917;-82
2022/02/11 10:11:49;;;;;;;;;;;;;;;17.71;48.47;103143.78;4998660;28;19901;-83
2022/02/11 10:14:20;;;;;;;;;;;;;;;17.72;48.65;103143.81;5000218;28;19910;-83
2022/02/11 10:17:08;;;;;;;;;;;;;;;17.74;48.32;103151.66;4996587;28;19993;-83
2022/02/11 10:19:53;;;;;;;;;;;;;;;17.73;48.54;103161.22;5002412;28;19901;-83
2022/02/11 10:22:20;;;;;;;;;;;;;;;17.73;48.41;103157.72;4996160;28;19906;-82
2022/02/11 10:24:46;;;;;;;;;;;;;;;17.73;48.39;103162.94;4983035;28;19910;-83
2022/02/11 10:27:28;;;;;;;;;;;;;;;17.72;48.64;103158.56;4981463;28;19985;-83
2022/02/11 10:29:58;;;;;;;;;;;;;;;17.72;48.35;103164.63;4984333;28;19960;-84
2022/02/11 10:32:46;;;;;;;;;;;;;;;17.73;48.45;103178.56;4984494;28;19902;-83
2022/02/11 10:35:15;;;;;;;;;;;;;;;17.73;48.34;103178.56;4981431;28;19914;-83
2022/02/11 10:37:59;;;;;;;;;;;;;;;17.75;48.42;103180.38;4979631;28;19917;-83
2022/02/11 10:40:29;;;;;;;;;;;;;;;17.76;48.31;103187.31;4980069;28;20420;-84
2022/02/11 10:42:58;;;;;;;;;;;;;;;17.75;48.29;103193.38;4980923;28;19921;-83
2022/02/11 10:45:29;;;;;;;;;;;;;;;17.73;48.42;103189.84;4982140;28;19936;-84
2022/02/11 10:48:10;;;;;;;;;;;;;;;17.71;48.35;103194.13;4977461;28;19921;-83
2022/02/11 10:50:35;;;;;;;;;;;;;;;17.69;48.30;103195.81;4979921;28;19921;-83
2022/02/11 10:53:01;;;;;;;;;;;;;;;17.67;48.43;103192.28;4977414;28;19918;-83
2022/02/11 10:55:26;;;;;;;;;;;;;;;17.67;48.28;103213.13;4976145;28;20387;-83
2022/02/11 10:57:57;;;;;;;;;;;;;;;17.64;48.46;103207.84;4974735;28;19946;-83
2022/02/11 11:00:23;;;;;;;;;;;;;;;17.63;48.54;103219.06;4985376;28;19910;-82
2022/02/11 11:02:48;;;;;;;;;;;;;;;17.63;48.44;103206.94;4971267;28;20357;-82
2022/02/11 11:05:14;;;;;;;;;;;;;;;17.61;48.26;103221.63;4969260;28;19910;-82
2022/02/11 11:07:40;;;;;;;;;;;;;;;17.62;48.59;103227.75;4969667;28;19917;-82
2022/02/11 11:10:08;;;;;;;;;;;;;;;17.62;48.55;103231.22;4970706;28;19910;-82
2022/02/11 11:12:36;;;;;;;;;;;;;;;17.61;48.49;103226.84;4989004;28;19982;-82
2022/02/11 11:15:02;;;;;;;;;;;;;;;17.63;48.30;103230.38;4972963;28;19920;-82
2022/02/11 11:17:30;;;;;;;;;;;;;;;17.65;48.31;103236.50;4973237;28;19981;-83
2022/02/11 11:19:58;;;;;;;;;;;;;;;17.66;48.23;103237.41;4974793;28;19913;-82
2022/02/11 11:22:26;;;;;;;;;;;;;;;17.67;48.23;103240.03;4974653;28;19925;-81
2022/02/11 11:24:54;;;;;;;;;;;;;;;17.67;48.28;103245.25;4990500;28;19917;-82
2022/02/11 11:27:38;;;;;;;;;;;;;;;17.68;48.15;103243.50;4992891;28;19910;-83
2022/02/11 11:30:26;;;;;;;;;;;;;;;17.71;48.33;103255.75;4976291;28;20264;-82
2022/02/11 11:33:04;;;;;;;;;;;;;;;17.73;48.18;103259.28;4991733;28;20000;-82
2022/02/11 11:35:33;;;;;;;;;;;;;;;17.74;48.06;103246.28;4971496;28;19914;-82
2022/02/11 11:38:11;;;;;;;;;;;;;;;17.76;47.78;103255.03;4992540;28;19918;-82
2022/02/11 11:40:37;;;;;;;;;;;;;;;17.76;47.80;103254.16;4990177;28;20392;-82
2022/02/11 11:43:12;;;;;;;;;;;;;;;17.79;47.63;103262.03;4975906;28;19898;-84
2022/02/11 11:45:39;;;;;;;;;;;;;;;17.79;47.80;103254.22;4980239;28;19914;-83
2022/02/11 11:48:14;;;;;;;;;;;;;;;17.79;47.73;103254.22;4979702;28;20357;-83
2022/02/11 11:50:41;;;;;;;;;;;;;;;17.80;47.60;103263.81;4964377;28;19898;-83
2022/02/11 11:53:27;;;;;;;;;;;;;;;17.83;47.75;103267.44;4963894;28;19898;-83
2022/02/11 11:55:53;;;;;;;;;;;;;;;17.83;47.57;103266.53;4979941;28;19914;-82
2022/02/11 11:58:43;;;;;;;;;;;;;;;17.85;47.50;103264.88;4995435;28;19917;-84
2022/02/11 12:01:27;;;;;;;;;;;;;;;17.87;47.53;103284.91;4981553;28;19969;-83
2022/02/11 12:04:11;;;;;;;;;;;;;;;17.87;47.54;103279.69;4997298;28;19894;-83
2022/02/11 12:06:36;;;;;;;;;;;;;;;17.87;47.55;103281.41;4982554;28;19942;-82
2022/02/11 12:09:02;;;;;;;;;;;;;;;17.87;47.70;103278.81;4982480;28;19902;-82
2022/02/11 12:11:27;;;;;;;;;;;;;;;17.87;47.79;103284.91;4978724;28;19918;-80
2022/02/11 12:13:57;;;;;;;;;;;;;;;17.90;47.88;103284.13;4974209;28;19910;-81
2022/02/11 12:16:23;;;;;;;;;;;;;;;17.90;48.22;103281.53;4962335;28;19964;-81
2022/02/11 12:18:50;;;;;;;;;;;;;;;17.91;48.32;103279.78;4994998;28;19898;-82
2022/02/11 12:21:15;;;;;;;;;;;;;;;17.88;48.35;103288.41;4982138;28;19914;-83
2022/02/11 12:29:12;;;;;;;;;;;;;;;17.82;48.35;103291.72;4999639;28;19938;-83
2022/02/11 12:31:39;;;;;;;;;;;;;;;17.82;48.34;103291.72;4969436;28;19944;-83
2022/02/11 12:34:12;;;;;;;;;;;;;;;17.80;48.41;103290.75;5002112;28;19922;-83
2022/02/11 12:36:37;;;;;;;;;;;;;;;17.79;48.22;103296.81;4969035;28;19941;-84
2022/02/11 12:39:02;;;;;;;;;;;;;;;17.80;48.40;103293.34;4984780;28;19921;-83
2022/02/11 12:41:48;;;;;;;;;;;;;;;17.81;48.50;103292.53;4970054;28;20332;-84
2022/02/11 12:44:42;;;;;;;;;;;;;;;17.82;48.31;103291.72;4985575;28;19909;-84
2022/02/11 12:47:08;;;;;;;;;;;;;;;17.82;48.39;103290.84;4981476;28;19917;-84
2022/02/11 12:49:43;;;;;;;;;;;;;;;17.82;48.39;103288.22;5002379;28;19898;-83
2022/02/11 12:52:08;;;;;;;;;;;;;;;17.81;48.29;103287.31;4985190;28;19953;-83
2022/02/11 12:54:33;;;;;;;;;;;;;;;17.80;48.29;103282.94;4969461;28;19918;-84
2022/02/11 12:57:04;;;;;;;;;;;;;;;17.81;48.20;103294.22;4985217;28;19898;-83
2022/02/11 12:59:29;;;;;;;;;;;;;;;17.82;48.23;103293.44;4985552;28;19933;-83
2022/02/11 13:01:57;;;;;;;;;;;;;;;17.82;48.32;103294.31;4985938;28;19926;-84
2022/02/11 13:04:22;;;;;;;;;;;;;;;17.83;48.09;103303.91;4985879;28;19926;-85
2022/02/11 13:06:48;;;;;;;;;;;;;;;17.85;48.06;103293.50;4971634;28;19910;-84
2022/02/11 13:09:21;;;;;;;;;;;;;;;17.86;48.06;103285.75;4969343;28;19918;-85
2022/02/11 13:11:55;;;;;;;;;;;;;;;17.87;48.13;103297.03;4984484;28;19925;-83
2022/02/11 13:14:20;;;;;;;;;;;;;;;17.93;47.70;103301.56;4984790;28;19894;-84
2022/02/11 13:16:49;;;;;;;;;;;;;;;17.93;47.95;103298.97;4984882;28;19910;-84
2022/02/11 13:19:17;;;;;;;;;;;;;;;17.94;47.70;103298.97;4984550;28;19925;-85
2022/02/11 13:21:42;;;;;;;;;;;;;;;17.96;47.66;103297.28;4985513;28;19894;-84
2022/02/11 13:24:08;;;;;;;;;;;;;;;17.95;47.86;103307.69;5019595;28;19908;-83
2022/02/11 13:26:34;;;;;;;;;;;;;;;17.94;47.84;103303.31;5020521;28;19912;-83
2022/02/11 13:28:59;;;;;;;;;;;;;;;17.91;47.75;103303.25;5020923;28;19918;-85
2022/02/11 13:31:29;;;;;;;;;;;;;;;17.92;47.94;103300.69;5020985;28;19905;-84
2022/02/11 13:34:02;;;;;;;;;;;;;;;17.93;47.68;103305.03;5020458;28;19949;-84
2022/02/11 13:36:30;;;;;;;;;;;;;;;17.92;47.69;103318.91;5020378;28;19936;-82
2022/02/11 13:39:01;;;;;;;;;;;;;;;17.93;47.57;103323.28;5004657;28;19921;-84
2022/02/11 13:41:28;;;;;;;;;;;;;;;17.93;47.64;103320.66;5018788;28;19893;-83
2022/02/11 13:43:53;;;;;;;;;;;;;;;17.91;47.67;103313.66;5020756;28;19894;-84
2022/02/11 13:46:25;;;;;;;;;;;;;;;17.89;47.63;103317.09;5020561;28;19960;-84
2022/02/11 13:48:52;;;;;;;;;;;;;;;17.90;47.60;103320.59;5011956;28;19997;-84
2022/02/11 13:51:17;;;;;;;;;;;;;;;17.88;47.75;103322.28;5019928;28;19921;-85
2022/02/11 13:53:44;;;;;;;;;;;;;;;17.88;47.89;103315.34;5019999;28;19913;-84
2022/02/11 13:56:14;;;;;;;;;;;;;;;17.88;47.89;103322.28;5019852;28;19920;-83
2022/02/11 13:58:59;;;;;;;;;;;;;;;17.87;47.89;103325.69;5018399;28;19910;-83
2022/02/11 14:01:28;;;;;;;;;;;;;;;17.88;48.16;103324.88;5017758;28;19901;-82
2022/02/11 14:03:58;;;;;;;;;;;;;;;17.89;48.20;103324.91;5013229;28;19910;-83
2022/02/11 14:06:23;;;;;;;;;;;;;;;17.91;48.09;103330.16;5015873;28;19909;-83
2022/02/11 14:08:49;;;;;;;;;;;;;;;17.91;48.00;103337.09;5016022;28;19933;-83
2022/02/11 14:11:15;;;;;;;;;;;;;;;17.89;48.21;103340.53;5014839;28;19909;-83
2022/02/11 14:13:41;;;;;;;;;;;;;;;17.89;48.01;103339.66;5015514;28;19917;-83
2022/02/11 14:16:07;;;;;;;;;;;;;;;17.89;47.99;103332.72;5014291;28;19913;-83
2022/02/11 14:18:32;;;;;;;;;;;;;;;17.89;47.95;103337.94;5014094;28;19916;-82
2022/02/11 14:20:57;;;;;;;;;;;;;;;17.89;47.94;103340.53;5013235;28;20001;-82
2022/02/11 14:23:23;;;;;;;;;;;;;;;17.91;48.12;103347.53;5012949;28;19952;-82
2022/02/11 14:25:51;;;;;;;;;;;;;;;17.89;47.89;103345.75;4992781;28;19910;-82
2022/02/11 14:28:17;;;;;;;;;;;;;;;17.89;48.07;103348.34;4987799;28;19914;-81
2022/02/11 14:30:44;;;;;;;;;;;;;;;17.91;48.00;103355.34;4968903;28;19917;-82
2022/02/11 14:33:10;;;;;;;;;;;;;;;17.94;47.90;103351.06;4983703;28;19955;-82
2022/02/11 14:35:36;;;;;;;;;;;;;;;17.98;47.75;103357.28;4983653;28;19985;-80
2022/02/11 14:38:01;;;;;;;;;;;;;;;18.02;47.93;103352.19;4982422;28;19952;-80
2022/02/11 14:40:27;;;;;;;;;;;;;;;18.04;47.65;103354.84;4983145;28;19914;-81
2022/02/11 14:42:52;;;;;;;;;;;;;;;18.05;47.65;103351.38;4984950;28;19909;-81
2022/02/11 14:45:17;;;;;;;;;;;;;;;18.07;47.51;103354.91;4976793;28;19914;-81
2022/02/11 14:47:43;;;;;;;;;;;;;;;18.08;47.45;103354.09;4973629;28;19957;-82
2022/02/11 14:50:08;;;;;;;;;;;;;;;18.12;47.33;103355.97;4978842;28;19917;-82
2022/02/11 14:52:33;;;;;;;;;;;;;;;18.12;47.36;103363.78;4978518;28;19914;-82
2022/02/11 14:54:59;;;;;;;;;;;;;;;18.15;47.32;103365.56;5013241;28;19921;-83
2022/02/11 14:57:24;;;;;;;;;;;;;;;18.16;47.24;103369.94;4990621;28;19933;-83
2022/02/11 14:59:49;;;;;;;;;;;;;;;18.15;47.45;103369.06;4990117;28;19973;-82
2022/02/11 15:02:15;;;;;;;;;;;;;;;18.15;47.32;103376.88;4978579;28;19921;-83
2022/02/11 15:04:41;;;;;;;;;;;;;;;18.14;47.48;103372.53;4999120;28;19957;-83
2022/02/11 15:07:07;;;;;;;;;;;;;;;18.15;47.40;103368.19;5002431;28;19918;-83
2022/02/11 15:09:32;;;;;;;;;;;;;;;18.18;47.55;103373.47;5020148;28;19973;-83
2022/02/11 15:11:58;;;;;;;;;;;;;;;18.22;47.31;103371.00;4996840;28;19932;-83
2022/02/11 15:14:25;;;;;;;;;;;;;;;18.23;47.39;103377.09;4986144;28;19902;-84
2022/02/11 15:16:50;;;;;;;;;;;;;;;18.19;47.53;103372.66;5000980;28;19948;-83
2022/02/11 15:19:16;;;;;;;;;;;;;;;18.14;47.56;103369.00;5001593;28;19909;-83
2022/02/11 15:21:45;;;;;;;;;;;;;;;18.12;47.70;103375.91;5018939;28;19910;-82
2022/02/11 15:24:11;;;;;;;;;;;;;;;18.09;47.83;103379.31;5019062;28;19914;-84
2022/02/11 15:26:37;;;;;;;;;;;;;;;18.07;47.82;103378.38;4999191;28;20435;-82
2022/02/11 15:29:02;;;;;;;;;;;;;;;18.05;47.84;103382.66;4983918;28;19921;-82
2022/02/11 15:31:28;;;;;;;;;;;;;;;18.05;47.92;103383.56;4982592;28;19910;-84
2022/02/11 15:33:53;;;;;;;;;;;;;;;18.08;48.97;103382.75;4984984;28;19932;-82
2022/02/11 15:36:20;;;;;;;;;;;;;;;18.11;49.02;103395.88;4986452;28;19921;-82
2022/02/11 15:38:45;;;;;;;;;;;;;;;18.13;48.97;103388.09;4984086;28;19918;-83
2022/02/11 15:41:11;;;;;;;;;;;;;;;18.08;48.73;103387.97;4994403;28;19916;-83
2022/02/11 15:43:37;;;;;;;;;;;;;;;18.05;48.50;103390.47;4996205;28;19960;-82
2022/02/11 15:46:05;;;;;;;;;;;;;;;18.01;48.27;103386.91;4986522;28;20353;-83
2022/02/11 15:48:33;;;;;;;;;;;;;;;17.98;48.22;103393.75;5001721;28;19916;-82
2022/02/11 15:51:01;;;;;;;;;;;;;;;17.95;48.25;103397.16;4982521;28;19916;-83
2022/02/11 15:53:27;;;;;;;;;;;;;;;17.94;48.44;103397.97;4985352;28;19910;-81
2022/02/11 15:55:52;;;;;;;;;;;;;;;17.92;48.33;103403.97;4994081;28;19928;-83
2022/02/11 15:58:18;;;;;;;;;;;;;;;17.92;48.35;103406.59;5016408;28;19921;-82
2022/02/11 16:00:43;;;;;;;;;;;;;;;17.90;48.36;103406.56;4991993;28;20377;-82
2022/02/11 16:03:08;;;;;;;;;;;;;;;17.91;48.33;103403.09;4989709;28;19910;-82
2022/02/11 16:05:36;;;;;;;;;;;;;;;17.89;48.36;103402.16;4998115;28;19944;-82
2022/02/11 16:08:03;;;;;;;;;;;;;;;17.89;48.44;103402.16;4995027;28;19917;-81
2022/02/11 16:10:28;;;;;;;;;;;;;;;17.89;48.38;103410.00;4996753;28;19909;-82
2022/02/11 16:12:54;;;;;;;;;;;;;;;17.86;48.43;103405.56;5025543;28;19913;-83
2022/02/11 16:15:20;;;;;;;;;;;;;;;17.86;48.56;103404.69;5008477;28;19977;-83
2022/02/11 16:18:04;;;;;;;;;;;;;;;17.84;48.38;103404.66;4997428;28;19961;-81
2022/02/11 16:20:31;;;;;;;;;;;;;;;17.83;48.65;103407.19;4995267;28;19913;-81
2022/02/11 16:22:57;;;;;;;;;;;;;;;17.81;48.61;103404.53;5025002;23;19961;-81
2022/02/11 16:25:23;;;;;;;;;;;;;;;17.80;48.89;103407.06;4991703;28;19917;-81
2022/02/11 16:27:57;;;;;;;;;;;;;;;17.80;48.59;103413.16;5016618;28;19909;-82
2022/02/11 16:30:24;;;;;;;;;;;;;;;17.82;48.70;103421.94;5021003;28;19916;-83
2022/02/11 16:32:49;;;;;;;;;;;;;;;17.84;48.55;103419.41;5022760;28;19909;-83
2022/02/11 16:35:16;;;;;;;;;;;;;;;17.86;48.46;103416.00;5007031;28;19898;-81
2022/02/11 16:37:41;;;;;;;;;;;;;;;17.86;48.55;103418.59;5015458;28;19916;-82
2022/02/11 16:40:14;;;;;;;;;;;;;;;17.86;48.66;103418.59;5007068;28;19913;-84